sensor_id;sensor_type;location;lat;lon;timestamp;temperature;humidity
6146;DHT22;3104;50.348;7.620;2022-12-18T00:01:21;-7.00;99.90
6146;DHT22;3104;50.348;7.620;2022-12-18T00:03:47;-6.70;99.90
6146;DHT22;3104;50.348;7.620;2022-12-18T00:06:12;-6.70;99.90
6146;DHT22;3104;50.348;7.620;2022-12-18T00:08:39;-6.70;99.90
6146;DHT22;3104;50.348;7.620;2022-12-18T00:11:07;-6.70;99.90
6146;DHT22;3104;50.348;7.620;2022-12-18T00:13:33;-6.60;99.90
6146;DHT22;3104;50.348;7.620;2022-12-18T00:16:03;-6.60;99.90
6146;DHT22;3104;50.348;7.620;2022-12-18T00:18:29;-6.70;99.90
6146;DHT22;3104;50.348;7.620;2022-12-18T00:21:01;-6.60;99.90
6146;DHT22;3104;50.348;7.620;2022-12-18T00:23:29;-6.30;99.90
6146;DHT22;3104;50.348;7.620;2022-12-18T00:25:58;-6.30;99.90
6146;DHT22;3104;50.348;7.620;2022-12-18T00:28:24;-6.60;99.90
6146;DHT22;3104;50.348;7.620;2022-12-18T00:30:49;-6.60;99.90
6146;DHT22;3104;50.348;7.620;2022-12-18T00:33:17;-6.70;99.90
6146;DHT22;3104;50.348;7.620;2022-12-18T00:35:42;-6.50;99.90
6146;DHT22;3104;50.348;7.620;2022-12-18T00:38:08;-6.50;99.90
6146;DHT22;3104;50.348;7.620;2022-12-18T00:40:34;-6.50;99.90
6146;DHT22;3104;50.348;7.620;2022-12-18T00:42:59;-6.40;99.90
6146;DHT22;3104;50.348;7.620;2022-12-18T00:45:30;-6.40;99.90
6146;DHT22;3104;50.348;7.620;2022-12-18T00:47:56;-6.30;99.90
6146;DHT22;3104;50.348;7.620;2022-12-18T00:50:23;-6.40;99.90
6146;DHT22;3104;50.348;7.620;2022-12-18T00:52:49;-6.40;99.90
6146;DHT22;3104;50.348;7.620;2022-12-18T00:55:15;-6.30;99.90
6146;DHT22;3104;50.348;7.620;2022-12-18T00:57:40;-6.20;99.90
6146;DHT22;3104;50.348;7.620;2022-12-18T01:00:09;-6.30;99.90
6146;DHT22;3104;50.348;7.620;2022-12-18T01:02:35;-6.70;99.90
6146;DHT22;3104;50.348;7.620;2022-12-18T01:05:01;-6.90;99.90
6146;DHT22;3104;50.348;7.620;2022-12-18T01:07:26;-6.80;99.90
6146;DHT22;3104;50.348;7.620;2022-12-18T01:09:52;-6.80;99.90
6146;DHT22;3104;50.348;7.620;2022-12-18T01:12:17;-6.90;99.90
6146;DHT22;3104;50.348;7.620;2022-12-18T01:14:43;-6.70;99.90
6146;DHT22;3104;50.348;7.620;2022-12-18T01:17:09;-6.80;99.90
6146;DHT22;3104;50.348;7.620;2022-12-18T01:19:34;-6.60;99.90
6146;DHT22;3104;50.348;7.620;2022-12-18T01:22:00;-6.70;99.90
6146;DHT22;3104;50.348;7.620;2022-12-18T01:24:26;-6.80;99.90
6146;DHT22;3104;50.348;7.620;2022-12-18T01:26:51;-6.80;99.90
6146;DHT22;3104;50.348;7.620;2022-12-18T01:29:17;-7.00;99.90
6146;DHT22;3104;50.348;7.620;2022-12-18T01:31:42;-7.00;99.90
6146;DHT22;3104;50.348;7.620;2022-12-18T01:34:09;-7.00;99.90
6146;DHT22;3104;50.348;7.620;2022-12-18T01:36:36;-7.10;99.90
6146;DHT22;3104;50.348;7.620;2022-12-18T01:39:05;-7.00;99.90
6146;DHT22;3104;50.348;7.620;2022-12-18T01:41:32;-7.30;99.90
6146;DHT22;3104;50.348;7.620;2022-12-18T01:49:46;-6.40;99.90
6146;DHT22;3104;50.348;7.620;2022-12-18T01:52:11;-6.80;99.90
6146;DHT22;3104;50.348;7.620;2022-12-18T01:54:37;-7.10;99.90
6146;DHT22;3104;50.348;7.620;2022-12-18T01:57:03;-7.20;99.90
6146;DHT22;3104;50.348;7.620;2022-12-18T01:59:30;-7.40;99.90
6146;DHT22;3104;50.348;7.620;2022-12-18T02:01:56;-7.50;99.90
6146;DHT22;3104;50.348;7.620;2022-12-18T02:04:24;-7.40;99.90
6146;DHT22;3104;50.348;7.620;2022-12-18T02:07:17;-7.40;99.90
6146;DHT22;3104;50.348;7.620;2022-12-18T02:10:10;-7.60;99.90
6146;DHT22;3104;50.348;7.620;2022-12-18T02:12:45;-7.90;99.90
6146;DHT22;3104;50.348;7.620;2022-12-18T02:15:40;-8.10;99.90
6146;DHT22;3104;50.348;7.620;2022-12-18T02:18:19;-7.70;99.90
6146;DHT22;3104;50.348;7.620;2022-12-18T02:28:55;-7.10;99.90
6146;DHT22;3104;50.348;7.620;2022-12-18T02:31:25;-7.20;99.90
6146;DHT22;3104;50.348;7.620;2022-12-18T02:33:54;-6.60;99.90
6146;DHT22;3104;50.348;7.620;2022-12-18T02:36:21;-7.10;99.90
6146;DHT22;3104;50.348;7.620;2022-12-18T02:38:47;-7.30;99.90
6146;DHT22;3104;50.348;7.620;2022-12-18T02:41:14;-7.50;99.90
6146;DHT22;3104;50.348;7.620;2022-12-18T02:43:47;-7.60;99.90
6146;DHT22;3104;50.348;7.620;2022-12-18T02:46:25;-7.70;99.90
6146;DHT22;3104;50.348;7.620;2022-12-18T02:48:55;-7.60;99.90
6146;DHT22;3104;50.348;7.620;2022-12-18T02:51:53;-7.70;99.90
6146;DHT22;3104;50.348;7.620;2022-12-18T02:57:34;-6.70;99.90
6146;DHT22;3104;50.348;7.620;2022-12-18T03:00:07;-7.30;99.90
6146;DHT22;3104;50.348;7.620;2022-12-18T03:02:41;-7.60;99.90
6146;DHT22;3104;50.348;7.620;2022-12-18T03:05:19;-7.70;99.90
6146;DHT22;3104;50.348;7.620;2022-12-18T03:07:57;-7.40;99.90
6146;DHT22;3104;50.348;7.620;2022-12-18T03:10:30;-7.50;99.90
6146;DHT22;3104;50.348;7.620;2022-12-18T03:13:04;-7.60;99.90
6146;DHT22;3104;50.348;7.620;2022-12-18T03:15:42;-7.70;99.90
6146;DHT22;3104;50.348;7.620;2022-12-18T03:18:17;-7.70;99.90
6146;DHT22;3104;50.348;7.620;2022-12-18T03:20:44;-7.30;99.90
6146;DHT22;3104;50.348;7.620;2022-12-18T03:23:15;-7.60;99.90
6146;DHT22;3104;50.348;7.620;2022-12-18T03:25:44;-7.70;99.90
6146;DHT22;3104;50.348;7.620;2022-12-18T03:28:13;-7.90;99.90
6146;DHT22;3104;50.348;7.620;2022-12-18T03:30:40;-7.80;99.90
6146;DHT22;3104;50.348;7.620;2022-12-18T03:33:18;-7.90;99.90
6146;DHT22;3104;50.348;7.620;2022-12-18T03:35:45;-7.70;99.90
6146;DHT22;3104;50.348;7.620;2022-12-18T03:38:11;-7.70;99.90
6146;DHT22;3104;50.348;7.620;2022-12-18T03:43:32;-7.90;99.90
6146;DHT22;3104;50.348;7.620;2022-12-18T03:46:07;-8.00;99.90
6146;DHT22;3104;50.348;7.620;2022-12-18T03:48:41;-8.10;99.90
6146;DHT22;3104;50.348;7.620;2022-12-18T03:51:14;-7.70;99.90
6146;DHT22;3104;50.348;7.620;2022-12-18T03:56:17;-7.90;99.90
6146;DHT22;3104;50.348;7.620;2022-12-18T03:58:44;-8.00;99.90
6146;DHT22;3104;50.348;7.620;2022-12-18T04:01:13;-8.20;99.90
6146;DHT22;3104;50.348;7.620;2022-12-18T04:03:41;-8.10;99.90
6146;DHT22;3104;50.348;7.620;2022-12-18T04:06:08;-7.90;99.90
6146;DHT22;3104;50.348;7.620;2022-12-18T04:08:35;-7.80;99.90
6146;DHT22;3104;50.348;7.620;2022-12-18T04:11:01;-7.10;99.90
6146;DHT22;3104;50.348;7.620;2022-12-18T04:13:29;-7.10;99.90
6146;DHT22;3104;50.348;7.620;2022-12-18T04:15:56;-7.50;99.90
6146;DHT22;3104;50.348;7.620;2022-12-18T04:18:22;-7.40;99.90
6146;DHT22;3104;50.348;7.620;2022-12-18T04:20:48;-7.40;99.90
6146;DHT22;3104;50.348;7.620;2022-12-18T04:23:13;-7.60;99.90
6146;DHT22;3104;50.348;7.620;2022-12-18T04:25:39;-7.50;99.90
6146;DHT22;3104;50.348;7.620;2022-12-18T04:28:04;-7.70;99.90
6146;DHT22;3104;50.348;7.620;2022-12-18T04:30:30;-7.80;99.90
6146;DHT22;3104;50.348;7.620;2022-12-18T04:32:56;-7.90;99.90
6146;DHT22;3104;50.348;7.620;2022-12-18T04:35:21;-7.90;99.90
6146;DHT22;3104;50.348;7.620;2022-12-18T04:37:47;-8.10;99.90
6146;DHT22;3104;50.348;7.620;2022-12-18T04:40:13;-8.10;99.90
6146;DHT22;3104;50.348;7.620;2022-12-18T04:42:39;-8.10;99.90
6146;DHT22;3104;50.348;7.620;2022-12-18T04:45:06;-7.90;99.90
6146;DHT22;3104;50.348;7.620;2022-12-18T04:47:32;-8.00;99.90
6146;DHT22;3104;50.348;7.620;2022-12-18T04:49:58;-8.10;99.90
6146;DHT22;3104;50.348;7.620;2022-12-18T04:52:23;-8.10;99.90
6146;DHT22;3104;50.348;7.620;2022-12-18T04:54:49;-7.90;99.90
6146;DHT22;3104;50.348;7.620;2022-12-18T04:57:14;-8.10;99.90
6146;DHT22;3104;50.348;7.620;2022-12-18T04:59:40;-8.30;99.90
6146;DHT22;3104;50.348;7.620;2022-12-18T05:02:05;-7.50;99.90
6146;DHT22;3104;50.348;7.620;2022-12-18T05:04:31;-7.50;99.90
6146;DHT22;3104;50.348;7.620;2022-12-18T05:06:57;-7.80;99.90
6146;DHT22;3104;50.348;7.620;2022-12-18T05:09:23;-7.70;99.90
6146;DHT22;3104;50.348;7.620;2022-12-18T05:11:49;-7.80;99.90
6146;DHT22;3104;50.348;7.620;2022-12-18T05:14:15;-7.90;99.90
6146;DHT22;3104;50.348;7.620;2022-12-18T05:16:40;-7.90;99.90
6146;DHT22;3104;50.348;7.620;2022-12-18T05:19:06;-8.00;99.90
6146;DHT22;3104;50.348;7.620;2022-12-18T05:21:31;-7.80;99.90
6146;DHT22;3104;50.348;7.620;2022-12-18T05:23:57;-7.90;99.90
6146;DHT22;3104;50.348;7.620;2022-12-18T05:26:22;-8.00;99.90
6146;DHT22;3104;50.348;7.620;2022-12-18T05:28:48;-8.10;99.90
6146;DHT22;3104;50.348;7.620;2022-12-18T05:31:14;-8.10;99.90
6146;DHT22;3104;50.348;7.620;2022-12-18T05:33:40;-8.20;99.90
6146;DHT22;3104;50.348;7.620;2022-12-18T05:36:07;-8.10;99.90
6146;DHT22;3104;50.348;7.620;2022-12-18T05:38:36;-8.10;99.90
6146;DHT22;3104;50.348;7.620;2022-12-18T05:41:03;-8.10;99.90
6146;DHT22;3104;50.348;7.620;2022-12-18T05:43:30;-8.10;99.90
6146;DHT22;3104;50.348;7.620;2022-12-18T05:45:55;-8.00;99.90
6146;DHT22;3104;50.348;7.620;2022-12-18T05:48:22;-8.00;99.90
6146;DHT22;3104;50.348;7.620;2022-12-18T05:50:49;-8.00;99.90
6146;DHT22;3104;50.348;7.620;2022-12-18T05:53:18;-7.90;99.90
6146;DHT22;3104;50.348;7.620;2022-12-18T05:55:45;-7.10;99.90
6146;DHT22;3104;50.348;7.620;2022-12-18T05:58:12;-7.50;99.90
6146;DHT22;3104;50.348;7.620;2022-12-18T06:00:39;-7.30;99.90
6146;DHT22;3104;50.348;7.620;2022-12-18T06:03:06;-7.80;99.90
6146;DHT22;3104;50.348;7.620;2022-12-18T06:05:37;-7.90;99.90
6146;DHT22;3104;50.348;7.620;2022-12-18T06:08:02;-7.10;99.90
6146;DHT22;3104;50.348;7.620;2022-12-18T06:10:28;-7.60;99.90
6146;DHT22;3104;50.348;7.620;2022-12-18T06:12:54;-7.90;99.90
6146;DHT22;3104;50.348;7.620;2022-12-18T06:15:19;-8.00;99.90
6146;DHT22;3104;50.348;7.620;2022-12-18T06:17:45;-7.00;99.90
6146;DHT22;3104;50.348;7.620;2022-12-18T06:20:10;-7.10;99.90
6146;DHT22;3104;50.348;7.620;2022-12-18T06:22:36;-7.40;99.90
6146;DHT22;3104;50.348;7.620;2022-12-18T06:25:01;-7.40;99.90
6146;DHT22;3104;50.348;7.620;2022-12-18T06:27:27;-7.00;99.90
6146;DHT22;3104;50.348;7.620;2022-12-18T06:29:53;-7.20;99.90
6146;DHT22;3104;50.348;7.620;2022-12-18T06:32:18;-7.80;99.90
6146;DHT22;3104;50.348;7.620;2022-12-18T06:34:44;-7.90;99.90
6146;DHT22;3104;50.348;7.620;2022-12-18T06:37:09;-8.30;99.90
6146;DHT22;3104;50.348;7.620;2022-12-18T06:39:35;-8.40;99.90
6146;DHT22;3104;50.348;7.620;2022-12-18T06:42:00;-8.40;99.90
6146;DHT22;3104;50.348;7.620;2022-12-18T06:44:26;-8.50;99.90
6146;DHT22;3104;50.348;7.620;2022-12-18T06:46:51;-8.60;99.90
6146;DHT22;3104;50.348;7.620;2022-12-18T06:49:17;-8.50;99.90
6146;DHT22;3104;50.348;7.620;2022-12-18T06:51:43;-8.30;99.90
6146;DHT22;3104;50.348;7.620;2022-12-18T06:54:08;-8.60;99.90
6146;DHT22;3104;50.348;7.620;2022-12-18T06:56:34;-8.80;99.90
6146;DHT22;3104;50.348;7.620;2022-12-18T06:59:00;-8.80;99.90
6146;DHT22;3104;50.348;7.620;2022-12-18T07:01:26;-8.90;99.90
6146;DHT22;3104;50.348;7.620;2022-12-18T07:03:53;-8.80;99.90
6146;DHT22;3104;50.348;7.620;2022-12-18T07:06:22;-8.60;99.90
6146;DHT22;3104;50.348;7.620;2022-12-18T07:08:48;-8.70;99.90
6146;DHT22;3104;50.348;7.620;2022-12-18T07:11:14;-8.80;99.90
6146;DHT22;3104;50.348;7.620;2022-12-18T07:13:40;-9.00;99.90
6146;DHT22;3104;50.348;7.620;2022-12-18T07:16:17;-8.90;99.90
6146;DHT22;3104;50.348;7.620;2022-12-18T07:18:44;-8.80;99.90
6146;DHT22;3104;50.348;7.620;2022-12-18T07:21:12;-8.50;99.90
6146;DHT22;3104;50.348;7.620;2022-12-18T07:23:38;-8.80;99.90
6146;DHT22;3104;50.348;7.620;2022-12-18T07:26:05;-8.90;99.90
6146;DHT22;3104;50.348;7.620;2022-12-18T07:28:32;-9.00;99.90
6146;DHT22;3104;50.348;7.620;2022-12-18T07:31:05;-9.00;99.90
6146;DHT22;3104;50.348;7.620;2022-12-18T07:33:32;-9.00;99.90
6146;DHT22;3104;50.348;7.620;2022-12-18T07:35:59;-9.00;99.90
6146;DHT22;3104;50.348;7.620;2022-12-18T07:38:25;-9.00;99.90
6146;DHT22;3104;50.348;7.620;2022-12-18T07:40:51;-8.20;99.90
6146;DHT22;3104;50.348;7.620;2022-12-18T07:43:16;-8.20;99.90
6146;DHT22;3104;50.348;7.620;2022-12-18T07:45:42;-7.60;99.90
6146;DHT22;3104;50.348;7.620;2022-12-18T07:48:08;-7.70;99.90
6146;DHT22;3104;50.348;7.620;2022-12-18T07:50:34;-8.40;99.90
6146;DHT22;3104;50.348;7.620;2022-12-18T07:52:59;-8.40;99.90
6146;DHT22;3104;50.348;7.620;2022-12-18T07:55:29;-8.70;99.90
6146;DHT22;3104;50.348;7.620;2022-12-18T07:57:55;-8.90;99.90
6146;DHT22;3104;50.348;7.620;2022-12-18T08:00:21;-9.00;99.90
6146;DHT22;3104;50.348;7.620;2022-12-18T08:02:46;-9.00;99.90
6146;DHT22;3104;50.348;7.620;2022-12-18T08:05:12;-9.10;99.90
6146;DHT22;3104;50.348;7.620;2022-12-18T08:07:38;-9.20;99.90
6146;DHT22;3104;50.348;7.620;2022-12-18T08:10:05;-9.30;99.90
6146;DHT22;3104;50.348;7.620;2022-12-18T08:12:30;-9.10;99.90
6146;DHT22;3104;50.348;7.620;2022-12-18T08:14:56;-9.10;99.90
6146;DHT22;3104;50.348;7.620;2022-12-18T08:17:21;-8.70;99.90
6146;DHT22;3104;50.348;7.620;2022-12-18T08:19:47;-8.50;99.90
6146;DHT22;3104;50.348;7.620;2022-12-18T08:22:13;-8.70;99.90
6146;DHT22;3104;50.348;7.620;2022-12-18T08:24:38;-8.60;99.90
6146;DHT22;3104;50.348;7.620;2022-12-18T08:27:04;-8.00;99.90
6146;DHT22;3104;50.348;7.620;2022-12-18T08:29:29;-7.70;99.90
6146;DHT22;3104;50.348;7.620;2022-12-18T08:31:55;-7.70;99.90
6146;DHT22;3104;50.348;7.620;2022-12-18T08:34:21;-7.60;99.90
6146;DHT22;3104;50.348;7.620;2022-12-18T08:36:46;-8.00;99.90
6146;DHT22;3104;50.348;7.620;2022-12-18T08:39:12;-7.60;99.90
6146;DHT22;3104;50.348;7.620;2022-12-18T08:41:38;-7.40;99.90
6146;DHT22;3104;50.348;7.620;2022-12-18T08:44:03;-7.20;99.90
6146;DHT22;3104;50.348;7.620;2022-12-18T08:46:47;-6.90;99.90
6146;DHT22;3104;50.348;7.620;2022-12-18T08:49:13;-6.30;99.90
6146;DHT22;3104;50.348;7.620;2022-12-18T08:51:39;-6.40;99.90
6146;DHT22;3104;50.348;7.620;2022-12-18T08:54:05;-6.90;99.90
6146;DHT22;3104;50.348;7.620;2022-12-18T08:56:31;-7.10;99.90
6146;DHT22;3104;50.348;7.620;2022-12-18T08:58:57;-7.40;99.90
6146;DHT22;3104;50.348;7.620;2022-12-18T09:01:23;-7.20;99.90
6146;DHT22;3104;50.348;7.620;2022-12-18T09:03:50;-7.10;99.90
6146;DHT22;3104;50.348;7.620;2022-12-18T09:06:17;-7.00;99.90
6146;DHT22;3104;50.348;7.620;2022-12-18T09:08:44;-6.50;99.90
6146;DHT22;3104;50.348;7.620;2022-12-18T09:11:18;-5.80;99.90
6146;DHT22;3104;50.348;7.620;2022-12-18T09:13:44;-4.80;99.90
6146;DHT22;3104;50.348;7.620;2022-12-18T09:16:10;-3.90;99.90
6146;DHT22;3104;50.348;7.620;2022-12-18T09:18:35;-3.90;99.90
6146;DHT22;3104;50.348;7.620;2022-12-18T09:21:08;-3.10;99.90
6146;DHT22;3104;50.348;7.620;2022-12-18T09:23:34;-2.80;99.90
6146;DHT22;3104;50.348;7.620;2022-12-18T09:26:00;-2.70;99.90
6146;DHT22;3104;50.348;7.620;2022-12-18T09:28:26;-2.20;99.90
6146;DHT22;3104;50.348;7.620;2022-12-18T09:30:52;-1.50;99.90
6146;DHT22;3104;50.348;7.620;2022-12-18T09:33:18;-2.50;99.90
6146;DHT22;3104;50.348;7.620;2022-12-18T09:35:44;-2.50;99.90
6146;DHT22;3104;50.348;7.620;2022-12-18T09:38:16;-3.00;99.90
6146;DHT22;3104;50.348;7.620;2022-12-18T09:40:44;-3.60;99.90
6146;DHT22;3104;50.348;7.620;2022-12-18T09:43:32;-4.10;99.90
6146;DHT22;3104;50.348;7.620;2022-12-18T09:46:03;-4.50;99.90
6146;DHT22;3104;50.348;7.620;2022-12-18T09:48:41;-4.30;99.90
6146;DHT22;3104;50.348;7.620;2022-12-18T09:51:17;-4.30;99.90
6146;DHT22;3104;50.348;7.620;2022-12-18T09:53:53;-3.80;99.90
6146;DHT22;3104;50.348;7.620;2022-12-18T09:56:21;-3.40;99.90
6146;DHT22;3104;50.348;7.620;2022-12-18T09:58:59;-2.70;99.90
6146;DHT22;3104;50.348;7.620;2022-12-18T10:01:27;-3.00;99.90
6146;DHT22;3104;50.348;7.620;2022-12-18T10:03:54;-2.80;99.90
6146;DHT22;3104;50.348;7.620;2022-12-18T10:06:32;-2.40;99.90
6146;DHT22;3104;50.348;7.620;2022-12-18T10:09:27;-1.80;99.90
6146;DHT22;3104;50.348;7.620;2022-12-18T10:17:17;-2.10;99.90
6146;DHT22;3104;50.348;7.620;2022-12-18T10:19:57;-2.20;99.90
6146;DHT22;3104;50.348;7.620;2022-12-18T10:25:30;-2.70;99.90
6146;DHT22;3104;50.348;7.620;2022-12-18T10:28:10;-2.10;99.90
6146;DHT22;3104;50.348;7.620;2022-12-18T10:30:39;-1.70;99.90
6146;DHT22;3104;50.348;7.620;2022-12-18T10:33:04;-2.00;99.90
6146;DHT22;3104;50.348;7.620;2022-12-18T10:35:31;-2.20;99.90
6146;DHT22;3104;50.348;7.620;2022-12-18T10:38:24;-1.90;99.90
6146;DHT22;3104;50.348;7.620;2022-12-18T10:41:04;-1.70;99.90
6146;DHT22;3104;50.348;7.620;2022-12-18T10:43:40;-1.30;99.90
6146;DHT22;3104;50.348;7.620;2022-12-18T10:51:02;-1.60;99.90
6146;DHT22;3104;50.348;7.620;2022-12-18T10:53:30;-1.60;99.90
6146;DHT22;3104;50.348;7.620;2022-12-18T10:56:00;-1.40;99.90
6146;DHT22;3104;50.348;7.620;2022-12-18T10:58:34;-1.50;99.90
6146;DHT22;3104;50.348;7.620;2022-12-18T11:01:08;-1.30;99.90
6146;DHT22;3104;50.348;7.620;2022-12-18T11:06:18;-0.80;99.90
6146;DHT22;3104;50.348;7.620;2022-12-18T11:08:58;-0.40;99.90
6146;DHT22;3104;50.348;7.620;2022-12-18T11:11:24;-0.60;99.90
6146;DHT22;3104;50.348;7.620;2022-12-18T11:16:51;-0.90;99.90
6146;DHT22;3104;50.348;7.620;2022-12-18T11:19:39;-0.70;99.90
6146;DHT22;3104;50.348;7.620;2022-12-18T11:30:36;-1.30;99.90
6146;DHT22;3104;50.348;7.620;2022-12-18T11:33:14;-1.00;99.90
6146;DHT22;3104;50.348;7.620;2022-12-18T11:35:49;-1.70;99.90
6146;DHT22;3104;50.348;7.620;2022-12-18T11:38:22;-2.20;99.90
6146;DHT22;3104;50.348;7.620;2022-12-18T11:41:19;-2.50;99.90
6146;DHT22;3104;50.348;7.620;2022-12-18T11:43:58;-2.20;99.90
6146;DHT22;3104;50.348;7.620;2022-12-18T11:46:36;-1.70;99.90
6146;DHT22;3104;50.348;7.620;2022-12-18T11:49:20;-1.70;99.90
6146;DHT22;3104;50.348;7.620;2022-12-18T11:51:48;-1.40;99.90
6146;DHT22;3104;50.348;7.620;2022-12-18T11:54:15;-1.40;99.90
6146;DHT22;3104;50.348;7.620;2022-12-18T11:57:08;-1.70;99.90
6146;DHT22;3104;50.348;7.620;2022-12-18T12:08:40;-1.30;99.90
6146;DHT22;3104;50.348;7.620;2022-12-18T12:14:16;-1.20;99.90
6146;DHT22;3104;50.348;7.620;2022-12-18T12:16:57;-1.10;99.90
6146;DHT22;3104;50.348;7.620;2022-12-18T12:19:38;-1.10;99.90
6146;DHT22;3104;50.348;7.620;2022-12-18T12:25:02;-0.90;99.90
6146;DHT22;3104;50.348;7.620;2022-12-18T12:30:10;-0.40;99.90
6146;DHT22;3104;50.348;7.620;2022-12-18T12:38:35;-0.80;99.90
6146;DHT22;3104;50.348;7.620;2022-12-18T12:41:05;-0.80;99.90
6146;DHT22;3104;50.348;7.620;2022-12-18T12:43:52;-0.90;99.90
6146;DHT22;3104;50.348;7.620;2022-12-18T12:46:21;-1.30;99.90
6146;DHT22;3104;50.348;7.620;2022-12-18T12:49:02;-1.40;99.90
6146;DHT22;3104;50.348;7.620;2022-12-18T12:51:36;-1.40;99.90
6146;DHT22;3104;50.348;7.620;2022-12-18T12:54:05;-0.70;99.90
6146;DHT22;3104;50.348;7.620;2022-12-18T12:56:50;-1.50;99.90
6146;DHT22;3104;50.348;7.620;2022-12-18T12:59:27;-1.10;99.90
6146;DHT22;3104;50.348;7.620;2022-12-18T13:02:06;-0.90;99.90
6146;DHT22;3104;50.348;7.620;2022-12-18T13:04:48;-1.40;99.90
6146;DHT22;3104;50.348;7.620;2022-12-18T13:07:29;-1.20;99.90
6146;DHT22;3104;50.348;7.620;2022-12-18T13:25:50;-1.00;99.90
6146;DHT22;3104;50.348;7.620;2022-12-18T13:28:49;-1.40;99.90
6146;DHT22;3104;50.348;7.620;2022-12-18T13:31:06;-1.20;99.90
6146;DHT22;3104;50.348;7.620;2022-12-18T13:36:04;-0.70;99.90
6146;DHT22;3104;50.348;7.620;2022-12-18T13:38:35;-1.10;99.90
6146;DHT22;3104;50.348;7.620;2022-12-18T13:41:04;-1.30;99.90
6146;DHT22;3104;50.348;7.620;2022-12-18T13:43:57;-1.10;99.90
6146;DHT22;3104;50.348;7.620;2022-12-18T13:46:47;-1.20;99.90
6146;DHT22;3104;50.348;7.620;2022-12-18T13:51:44;-0.70;99.90
6146;DHT22;3104;50.348;7.620;2022-12-18T13:56:56;-1.40;99.90
6146;DHT22;3104;50.348;7.620;2022-12-18T13:59:32;-1.70;99.90
6146;DHT22;3104;50.348;7.620;2022-12-18T14:02:00;-1.40;99.90
6146;DHT22;3104;50.348;7.620;2022-12-18T14:04:34;-1.60;99.90
6146;DHT22;3104;50.348;7.620;2022-12-18T14:07:05;-1.80;99.90
6146;DHT22;3104;50.348;7.620;2022-12-18T14:09:39;-1.70;99.90
6146;DHT22;3104;50.348;7.620;2022-12-18T14:12:05;-1.80;99.90
6146;DHT22;3104;50.348;7.620;2022-12-18T14:14:51;-1.60;99.90
6146;DHT22;3104;50.348;7.620;2022-12-18T14:17:17;-1.60;99.90
6146;DHT22;3104;50.348;7.620;2022-12-18T14:19:46;-1.50;99.90
6146;DHT22;3104;50.348;7.620;2022-12-18T14:22:21;-1.00;99.90
6146;DHT22;3104;50.348;7.620;2022-12-18T14:27:38;-1.50;99.90
6146;DHT22;3104;50.348;7.620;2022-12-18T14:33:24;-1.60;99.90
6146;DHT22;3104;50.348;7.620;2022-12-18T14:35:59;-1.90;99.90
6146;DHT22;3104;50.348;7.620;2022-12-18T14:38:34;-2.00;99.90
6146;DHT22;3104;50.348;7.620;2022-12-18T14:41:10;-1.90;99.90
6146;DHT22;3104;50.348;7.620;2022-12-18T14:43:38;-1.40;99.90
6146;DHT22;3104;50.348;7.620;2022-12-18T14:48:59;-1.60;99.90
6146;DHT22;3104;50.348;7.620;2022-12-18T14:51:29;-1.20;99.90
6146;DHT22;3104;50.348;7.620;2022-12-18T14:53:58;-1.40;99.90
6146;DHT22;3104;50.348;7.620;2022-12-18T14:56:26;-1.50;99.90
6146;DHT22;3104;50.348;7.620;2022-12-18T14:58:56;-1.60;99.90
6146;DHT22;3104;50.348;7.620;2022-12-18T15:01:37;-1.70;99.90
6146;DHT22;3104;50.348;7.620;2022-12-18T15:04:04;-2.00;99.90
6146;DHT22;3104;50.348;7.620;2022-12-18T15:06:36;-1.70;99.90
6146;DHT22;3104;50.348;7.620;2022-12-18T15:09:24;-1.80;99.90
6146;DHT22;3104;50.348;7.620;2022-12-18T15:11:56;-1.80;99.90
6146;DHT22;3104;50.348;7.620;2022-12-18T15:17:19;-1.70;99.90
6146;DHT22;3104;50.348;7.620;2022-12-18T15:19:46;-1.80;99.90
6146;DHT22;3104;50.348;7.620;2022-12-18T15:22:34;-1.90;99.90
6146;DHT22;3104;50.348;7.620;2022-12-18T15:25:00;-1.70;99.90
6146;DHT22;3104;50.348;7.620;2022-12-18T15:27:35;-1.90;99.90
6146;DHT22;3104;50.348;7.620;2022-12-18T15:30:17;-2.00;99.90
6146;DHT22;3104;50.348;7.620;2022-12-18T15:32:43;-2.40;99.90
6146;DHT22;3104;50.348;7.620;2022-12-18T15:35:22;-2.30;99.90
6146;DHT22;3104;50.348;7.620;2022-12-18T15:37:49;-2.50;99.90
6146;DHT22;3104;50.348;7.620;2022-12-18T15:40:20;-2.30;99.90
6146;DHT22;3104;50.348;7.620;2022-12-18T15:42:46;-2.40;99.90
6146;DHT22;3104;50.348;7.620;2022-12-18T15:45:31;-2.30;99.90
6146;DHT22;3104;50.348;7.620;2022-12-18T15:47:56;-2.20;99.90
6146;DHT22;3104;50.348;7.620;2022-12-18T15:50:23;-2.30;99.90
6146;DHT22;3104;50.348;7.620;2022-12-18T15:52:50;-2.60;99.90
6146;DHT22;3104;50.348;7.620;2022-12-18T15:55:21;-2.50;99.90
6146;DHT22;3104;50.348;7.620;2022-12-18T15:58:07;-2.50;99.90
6146;DHT22;3104;50.348;7.620;2022-12-18T16:00:34;-2.50;99.90
6146;DHT22;3104;50.348;7.620;2022-12-18T16:03:00;-2.40;99.90
6146;DHT22;3104;50.348;7.620;2022-12-18T16:05:27;-2.40;99.90
6146;DHT22;3104;50.348;7.620;2022-12-18T16:07:53;-2.60;99.90
6146;DHT22;3104;50.348;7.620;2022-12-18T16:10:19;-2.30;99.90
6146;DHT22;3104;50.348;7.620;2022-12-18T16:12:45;-2.00;99.90
6146;DHT22;3104;50.348;7.620;2022-12-18T16:15:13;-2.00;99.90
6146;DHT22;3104;50.348;7.620;2022-12-18T16:17:42;-2.10;99.90
6146;DHT22;3104;50.348;7.620;2022-12-18T16:20:19;-2.10;99.90
6146;DHT22;3104;50.348;7.620;2022-12-18T16:22:46;-2.00;99.90
6146;DHT22;3104;50.348;7.620;2022-12-18T16:25:24;-2.20;99.90
6146;DHT22;3104;50.348;7.620;2022-12-18T16:27:51;-2.30;99.90
6146;DHT22;3104;50.348;7.620;2022-12-18T16:30:25;-2.30;99.90
6146;DHT22;3104;50.348;7.620;2022-12-18T16:32:53;-2.30;99.90
6146;DHT22;3104;50.348;7.620;2022-12-18T16:35:19;-2.00;99.90
6146;DHT22;3104;50.348;7.620;2022-12-18T16:37:44;-1.80;99.90
6146;DHT22;3104;50.348;7.620;2022-12-18T16:40:12;-2.20;99.90
6146;DHT22;3104;50.348;7.620;2022-12-18T16:42:39;-2.20;99.90
6146;DHT22;3104;50.348;7.620;2022-12-18T16:45:07;-2.10;99.90
6146;DHT22;3104;50.348;7.620;2022-12-18T16:47:33;-2.10;99.90
6146;DHT22;3104;50.348;7.620;2022-12-18T16:49:59;-2.40;99.90
6146;DHT22;3104;50.348;7.620;2022-12-18T16:52:24;-2.60;99.90
6146;DHT22;3104;50.348;7.620;2022-12-18T16:54:50;-2.70;99.90
6146;DHT22;3104;50.348;7.620;2022-12-18T16:57:18;-2.50;99.90
6146;DHT22;3104;50.348;7.620;2022-12-18T16:59:44;-2.00;99.90
6146;DHT22;3104;50.348;7.620;2022-12-18T17:02:15;-2.10;99.90
6146;DHT22;3104;50.348;7.620;2022-12-18T17:04:42;-2.30;99.90
6146;DHT22;3104;50.348;7.620;2022-12-18T17:07:08;-2.60;99.90
6146;DHT22;3104;50.348;7.620;2022-12-18T17:09:34;-2.30;99.90
6146;DHT22;3104;50.348;7.620;2022-12-18T17:12:00;-2.30;99.90
6146;DHT22;3104;50.348;7.620;2022-12-18T17:14:26;-2.10;99.90
6146;DHT22;3104;50.348;7.620;2022-12-18T17:16:53;-2.20;99.90
6146;DHT22;3104;50.348;7.620;2022-12-18T17:19:19;-2.40;99.90
6146;DHT22;3104;50.348;7.620;2022-12-18T17:21:48;-2.30;99.90
6146;DHT22;3104;50.348;7.620;2022-12-18T17:24:14;-2.20;99.90
6146;DHT22;3104;50.348;7.620;2022-12-18T17:26:40;-2.20;99.90
6146;DHT22;3104;50.348;7.620;2022-12-18T17:29:06;-2.30;99.90
6146;DHT22;3104;50.348;7.620;2022-12-18T17:31:32;-2.40;99.90
6146;DHT22;3104;50.348;7.620;2022-12-18T17:34:02;-1.60;99.90
6146;DHT22;3104;50.348;7.620;2022-12-18T17:36:28;-1.50;99.90
6146;DHT22;3104;50.348;7.620;2022-12-18T17:38:58;-2.10;99.90
6146;DHT22;3104;50.348;7.620;2022-12-18T17:41:25;-2.20;99.90
6146;DHT22;3104;50.348;7.620;2022-12-18T17:43:52;-1.80;99.90
6146;DHT22;3104;50.348;7.620;2022-12-18T17:46:19;-1.80;99.90
6146;DHT22;3104;50.348;7.620;2022-12-18T17:48:45;-1.90;99.90
6146;DHT22;3104;50.348;7.620;2022-12-18T17:51:12;-1.80;99.90
6146;DHT22;3104;50.348;7.620;2022-12-18T17:53:38;-2.20;99.90
6146;DHT22;3104;50.348;7.620;2022-12-18T17:56:04;-2.10;99.90
6146;DHT22;3104;50.348;7.620;2022-12-18T17:58:31;-2.10;99.90
6146;DHT22;3104;50.348;7.620;2022-12-18T18:00:57;-1.60;99.90
6146;DHT22;3104;50.348;7.620;2022-12-18T18:03:23;-1.50;99.90
6146;DHT22;3104;50.348;7.620;2022-12-18T18:05:56;-1.70;99.90